Portada
METAR-TAF:

METAR-TAF

Aeroports :

Rarotonga, Illes Cook

latitud: 21-12S, longitud: 159-49W, altitud: 7 m

Observació

L'informe es va fer fa 19 minuts, a les 14:30 UTC
Vent 1 kt del Sud
Temperatura 25°C
Humitat 94%
Pressió 1012 hPa
Visibilitat 10 km o més

METAR: NCRG 021430Z AUTO 19001KT 9999 FEW016/// 25/24 Q1012

Hora: 04:49 (14:49 UTC)

Pronòstic

L'informe es va fer fa 3 hores i 28 minuts, a les 11:21 UTC
Pronòstic vàlid del 02 a les 12 UTC al 03 a les 12 UTC
Vent 6 kt del Sud/Sud-Oest
Visibilitat 10 km o més
Núvols disperses a una alçada de 2300 ft

TAF: NCRG 021121Z 0212/0312 20006KT 9999 SCT023

Observacions i pronòstics meteorològics de més de 4000 aeroports (METAR i TAF).

Les estacions disponibles són els punts grocs i vermells al mapa.

Posi el ratolí al punt desitjat per veure el nom de l'estació.

Feu clic per veure les observacions i els pronòstics meteorològics.

Per canviar el mapa: feu clic els botons verds amb una creu de color negre per apropar; al botó verd amb un guió per allunyar la imatge; o en les fletxes verdes per a mapes adjacents.


METAR-TAF: